createdAt,value
2022-09-06T07:03:35.782Z,1.00
2022-09-06T07:08:41.902Z,1.00
2022-09-06T07:13:47.097Z,1.00
2022-09-06T07:16:19.767Z,1.00
2022-09-06T07:18:52.245Z,1.00
2022-09-06T07:21:40.817Z,1.00
2022-09-06T07:24:12.525Z,1.00
2022-09-06T07:29:35.889Z,1.00
2022-09-06T07:32:10.648Z,1.00
2022-09-06T07:34:42.595Z,1.00
2022-09-06T07:37:15.673Z,1.00
2022-09-06T07:39:47.390Z,1.00
2022-09-06T07:44:51.157Z,1.00
2022-09-06T07:53:10.105Z,1.00
2022-09-06T09:38:46.529Z,99.90
2022-09-06T09:41:27.268Z,99.90
2022-09-06T09:44:04.411Z,99.90
2022-09-06T09:46:37.011Z,99.90
2022-09-06T09:49:09.479Z,96.70
2022-09-06T09:51:41.804Z,58.40
2022-09-06T09:54:14.144Z,52.60
2022-09-06T09:56:48.791Z,62.80
2022-09-06T09:59:22.854Z,47.20
2022-09-06T10:01:55.801Z,14.30
2022-09-06T10:04:47.035Z,7.40
2022-09-06T10:07:19.741Z,20.30
2022-09-06T10:09:57.717Z,1.00
2022-09-06T10:12:31.941Z,1.00
2022-09-06T10:15:07.074Z,1.00
2022-09-06T10:17:48.230Z,1.00
2022-09-06T10:20:32.662Z,1.00
2022-09-06T10:23:06.641Z,1.00
2022-09-06T10:25:40.173Z,6.00
2022-09-06T10:28:35.980Z,1.00
2022-09-06T10:31:53.055Z,1.00
2022-09-06T10:34:44.684Z,1.00
2022-09-06T10:37:28.931Z,94.30
2022-09-06T10:40:03.089Z,99.90
2022-09-06T10:42:39.179Z,1.00
2022-09-06T10:45:20.693Z,1.00
2022-09-06T10:55:39.725Z,28.10
2022-09-06T10:58:19.360Z,1.00
2022-09-06T11:00:53.165Z,1.00
2022-09-06T14:37:13.427Z,1.00
2022-09-06T14:39:45.517Z,1.00
2022-09-06T14:42:18.584Z,1.00
2022-09-06T14:44:50.305Z,1.00
2022-09-06T14:47:22.034Z,1.00
2022-09-06T14:49:53.728Z,1.00
2022-09-06T14:52:25.403Z,1.00
2022-09-06T14:54:57.108Z,1.00
2022-09-06T15:43:43.972Z,1.00
2022-09-06T15:46:16.361Z,1.00
2022-09-06T15:48:48.796Z,99.90
2022-09-06T15:51:20.582Z,1.00
2022-09-06T15:56:24.319Z,1.00
2022-09-06T16:01:29.547Z,99.90
2022-09-06T16:04:01.631Z,1.00
2022-09-06T16:06:34.609Z,1.00
2022-09-06T16:09:07.304Z,1.00
2022-09-06T16:14:13.328Z,1.00
2022-09-06T16:16:45.196Z,1.00
2022-09-06T16:19:16.928Z,1.00
2022-09-06T16:21:48.634Z,7.50
2022-09-06T16:26:52.421Z,1.00
2022-09-06T16:29:25.531Z,1.00
2022-09-06T16:37:01.357Z,1.00
2022-09-06T16:39:33.074Z,1.00
2022-09-06T16:42:05.029Z,1.00
2022-09-06T16:44:38.698Z,1.00
2022-09-06T16:47:14.693Z,1.00
2022-09-06T16:52:20.197Z,1.00
2022-09-06T16:54:51.901Z,1.00
2022-09-06T16:57:23.628Z,1.00
2022-09-06T16:59:56.674Z,1.00
2022-09-06T17:02:28.480Z,1.00
2022-09-06T17:05:00.248Z,1.00
2022-09-06T17:07:31.970Z,1.00
2022-09-06T17:10:04.209Z,1.00
2022-09-06T17:12:35.912Z,1.00
2022-09-06T17:15:10.517Z,1.00
2022-09-06T17:17:42.216Z,1.00
2022-09-06T17:20:13.975Z,1.00
2022-09-06T17:22:49.319Z,1.00
2022-09-06T17:25:21.099Z,1.00
2022-09-06T17:27:52.801Z,1.00
2022-09-06T17:30:25.913Z,1.00
2022-09-06T17:32:57.608Z,1.00
2022-09-06T17:35:29.332Z,1.00
2022-09-06T17:38:01.027Z,1.00
2022-09-06T17:40:32.748Z,1.00
2022-09-06T17:43:04.470Z,1.00
2022-09-06T17:45:38.100Z,1.00
2022-09-06T17:48:09.826Z,1.00
2022-09-06T17:50:41.516Z,1.00
2022-09-06T17:53:13.237Z,1.00
2022-09-06T17:55:44.999Z,1.00
2022-09-06T17:58:16.721Z,1.00
2022-09-06T18:03:21.901Z,1.00
2022-09-06T18:05:53.611Z,1.00
2022-09-06T18:08:25.882Z,1.00
2022-09-06T18:10:57.635Z,1.00
2022-09-06T18:13:29.321Z,1.00
2022-09-06T18:16:02.704Z,1.00
2022-09-06T18:18:34.725Z,1.00
2022-09-06T18:21:06.659Z,1.00
2022-09-06T18:23:38.343Z,1.00
2022-09-06T18:26:10.185Z,1.00
2022-09-06T18:28:41.907Z,1.00
2022-09-06T18:31:16.409Z,1.00
2022-09-06T18:33:48.175Z,1.00
2022-09-06T18:36:19.910Z,1.00
2022-09-06T18:38:51.639Z,1.00
2022-09-06T18:41:24.369Z,1.00
2022-09-06T18:43:56.367Z,1.00
2022-09-06T18:46:29.612Z,1.00
2022-09-06T18:49:01.399Z,1.00
2022-09-06T18:51:33.286Z,1.00
2022-09-06T18:54:05.213Z,1.00
2022-09-06T18:56:36.929Z,1.00
2022-09-06T18:59:08.671Z,1.00
2022-09-06T19:01:41.846Z,1.00
2022-09-06T19:04:13.619Z,1.00
2022-09-06T19:06:45.311Z,1.00
2022-09-06T19:09:17.097Z,1.00
2022-09-06T19:11:48.793Z,1.00
2022-09-06T19:14:20.559Z,1.00
2022-09-06T19:16:53.630Z,1.00
2022-09-06T19:19:25.432Z,1.00
2022-09-06T19:21:57.414Z,1.00
2022-09-06T19:24:29.095Z,1.00
2022-09-06T19:27:00.792Z,1.00
2022-09-06T19:29:32.479Z,1.00
2022-09-06T19:32:05.777Z,1.00
2022-09-06T19:34:37.539Z,1.00
2022-09-06T19:37:09.241Z,1.00
2022-09-06T19:39:40.945Z,1.00
2022-09-06T19:42:12.668Z,1.00
2022-09-06T19:44:44.382Z,1.00
2022-09-06T19:47:17.468Z,1.00
2022-09-06T19:49:49.170Z,1.00
2022-09-06T19:52:20.870Z,1.00
2022-09-06T19:54:52.548Z,1.00
2022-09-06T19:57:24.350Z,1.00
2022-09-06T19:59:56.028Z,1.00
2022-09-06T20:02:29.124Z,1.00
2022-09-06T20:05:00.833Z,1.00
2022-09-06T20:07:32.540Z,1.00
2022-09-06T20:10:05.125Z,1.00
2022-09-06T20:12:36.824Z,10.60
2022-09-06T20:15:09.772Z,14.60
2022-09-06T20:17:42.832Z,18.50
2022-09-06T20:20:14.698Z,18.20
2022-09-06T20:22:46.462Z,23.30
2022-09-06T20:25:18.167Z,36.50
2022-09-06T20:27:49.866Z,54.20
2022-09-06T20:30:21.557Z,89.50
2022-09-06T20:32:54.625Z,87.80
2022-09-06T20:35:26.349Z,89.40
2022-09-06T20:37:58.108Z,95.80
2022-09-06T20:40:29.863Z,99.90
2022-09-06T20:43:01.561Z,99.90
2022-09-06T20:45:33.409Z,99.90
2022-09-06T20:48:06.460Z,1.00
2022-09-06T20:50:38.164Z,1.00
2022-09-06T20:53:09.879Z,53.00
2022-09-06T20:55:41.556Z,1.00
2022-09-06T20:58:13.283Z,1.00
2022-09-06T21:00:45.083Z,1.00
2022-09-06T21:03:18.204Z,1.00
2022-09-06T21:05:49.947Z,99.90
2022-09-06T21:08:21.618Z,99.90
2022-09-06T21:10:58.581Z,99.90
2022-09-06T21:13:30.314Z,99.90
2022-09-06T21:16:02.550Z,99.90
2022-09-06T21:18:35.680Z,99.90
2022-09-06T21:21:07.707Z,99.90
2022-09-06T21:23:39.442Z,99.90
2022-09-06T21:26:11.788Z,1.00
2022-09-06T21:28:44.075Z,1.00
2022-09-06T21:31:18.794Z,1.00
2022-09-06T21:33:52.636Z,99.90
2022-09-06T21:36:25.111Z,99.90
2022-09-06T21:38:57.725Z,99.90
2022-09-06T21:41:29.675Z,99.90
2022-09-06T21:44:01.916Z,99.90
2022-09-06T21:46:36.678Z,99.90
2022-09-06T21:49:10.909Z,99.90
2022-09-06T21:51:42.838Z,99.90
2022-09-06T21:54:14.540Z,99.90
2022-09-06T21:56:46.253Z,99.90
2022-09-06T21:59:18.011Z,99.90
